Ely Municipal Airport Ely US
ICAO: KELO
IATA: ELO
Category: Medium
Scheduled Services: No

Elevation: 1456 ft
TransAlt. 18000 ft.

Airport Communications:
AWOS 3:132.025
PRINCETON RDO:109.6
CTAF/UNICOM:122.8

KELO Zoom In..

If you have problems with the map follow the link
https://www.worldairports.se/pages/airport.php?
ICAO=KELO

Runways:

(A) RW 12 length 5596 ft width 100 ft
---- / hdg 120

(B) RW 30 length 5596 ft width 100 ft
---- / hdg 300

Location; KELO
Day. 25 / Time. 06.55 Zulu
* Altimeter: 29.96
* Temperature: -04° c. -24.8°f.
* Wind from: 000° Speed 00 kn.
Dewpoint: -04° c.
Visibility: 5 Statute Miles.
Clouds: Scattered 600 ft.
Clouds: Overcast 1300 ft.
Conditions: Light Snow.

KELO 250655Z AUTO 00000KT 5SM -SN SCT006 OVC013 M04/M04 A2996 RMK AO2


Wind - Calm.

 
 
jpsmedia worldairports.se 2020   terms of use